Weather observations for the past three days for
Manning / Cooper Regional
Imperial (Metric)
Date Time (edt) Wind (mph) Vis. (mi.) Weather Sky Cond. Temperature (ºF) Relative Humidity Wind Chill (°F) Heat Index (°F) Pressure Precipitation (in)
Air Dwpt 6 hour altimeter (in) sea level (mb) 1 hr 3 hr 6 hr
Max. Min.
03 15:15 NW 7 10.00 Partly Cloudy SCT055 66.2 39.2 37% 30.09 0.0
03 14:55 S 3 10.00 Partly Cloudy SCT055 64.4 41 43% 30.1 0.0
03 14:35 SW 8 10.00 Mostly Cloudy BKN055 64.4 41 43% 30.11 0.0
03 14:15 W 7 10.00 Partly Cloudy SCT055 64.4 37.4 37% 30.11 0.0
03 13:55 NW 6 10.00 Partly Cloudy SCT055 66.2 37.4 35% 30.11 0.0
03 13:35 Calm 10.00 Partly Cloudy SCT055 64.4 37.4 37% 30.11 0.0
03 13:15 NW 3 10.00 Fair CLR 64.4 37.4 37% 30.12 0.0
03 12:55 Calm 10.00 Fair CLR 62.6 37.4 39% 30.13 0.0
03 12:35 Calm 10.00 Fair CLR 62.6 37.4 39% 30.13 0.0
03 12:15 NE 5 10.00 Fair CLR 60.8 37.4 42% 30.14 0.0
03 11:55 NE 7 10.00 Fair CLR 60.8 35.6 39% 30.15 0.0
03 11:35 NE 5 10.00 Fair CLR 60.8 37.4 42% 30.15 0.0
03 11:15 N 7 10.00 Fair CLR 60.8 41 48% 30.15 0.0
03 10:55 Calm 10.00 Fair CLR 59 37.4 45% 30.15 0.0
03 10:35 E 5 10.00 Fair CLR 59 39.2 48% 30.15 0.0
03 10:15 NE 7 10.00 Fair CLR 57.2 41 55% 30.14 0.0
03 09:55 NE 6 10.00 Fair CLR 55.4 41 59% 30.14 0.0
03 09:35 NE 7 10.00 Fair CLR 53.6 42.8 67% 30.13 0.0
03 09:15 NE 3 10.00 Fair CLR 53.6 46.4 77% 30.13 0.0
03 08:55 NE 5 10.00 Fair CLR 51.8 46.4 82% 30.13 0.0
03 08:35 N 6 10.00 Fair CLR 50 50 100% 48 30.13 0.0
03 08:15 N 3 7.00 Fair CLR 48.2 48.2 100% 30.12 0.0
03 07:55 N 3 5.00 Fog/Mist CLR 46.4 46.4 100% 30.12 0.0
03 07:35 Calm 4.00 Fog/Mist CLR 42.8 42.8 100% 30.11 0.0
03 07:15 Calm 4.00 Fog/Mist SCT001 41 41 100% 30.1 0.0
03 06:35 Calm 2.50 Fog/Mist SCT001 41 41 100% 30.08 0.0
03 06:15 Calm 1.25 Fog/Mist BKN001 41 41 100% 30.08 0.0
03 05:55 Calm 2.00 Fog/Mist OVC001 42.8 42.8 100% 30.06 0.0
03 05:35 Calm 10.00 Partly Cloudy SCT001 42.8 42.8 100% 30.06 0.0
03 05:15 Calm 5.00 Fog/Mist CLR 42.8 42.8 100% 30.05 0.0
03 04:55 Calm 4.00 Fog/Mist CLR 42.8 42.8 100% 30.05 0.0
03 04:35 Calm 4.00 Fog/Mist CLR 42.8 42.8 100% 30.05 0.0
03 04:15 Calm 4.00 Fog/Mist CLR 44.6 44.6 100% 30.05 0.0
03 03:55 Calm 4.00 Fog/Mist CLR 44.6 44.6 100% 30.04 0.0
03 03:35 Calm 4.00 Fog/Mist SCT095 44.6 44.6 100% 30.03 0.0
03 03:15 Calm 4.00 Fog/Mist SCT100 44.6 44.6 100% 30.02 0.0
03 02:55 Calm 4.00 Fog/Mist SCT100 44.6 44.6 100% 30.02 0.0
03 02:35 Calm 2.50 Fog/Mist SCT100 44.6 44.6 100% 30.02 0.0
03 02:15 Calm 5.00 Fog/Mist SCT095 46.4 46.4 100% 30.01 0.0
03 01:55 Calm 3.00 Fog/Mist BKN095 46.4 46.4 100% 30.02 0.0
03 01:35 Calm 4.00 Fog/Mist OVC095 46.4 46.4 100% 30.02 0.0
03 01:15 Calm 4.00 Fog/Mist BKN095 46.4 46.4 100% 30.02 0.0
03 00:55 Calm 4.00 Fog/Mist CLR 48.2 48.2 100% 30.02 0.0
03 00:35 Calm 7.00 Partly Cloudy SCT095 50 50 100% 30.01 0.0
03 00:15 Calm 5.00 Fog/Mist OVC095 50 50 100% 30 0.0
02 23:55 Calm 7.00 Overcast OVC095 50 50 100% 30 0.0
02 23:35 Calm 7.00 Overcast OVC095 48.2 48.2 100% 30 0.0
02 23:15 Calm 5.00 Fog/Mist OVC095 48.2 48.2 100% 29.99 0.0
02 22:55 Calm 0.75 Fog/Mist BKN001 OVC095 48.2 48.2 100% 29.98 0.0
02 22:35 Calm 3.00 Fog/Mist SCT001 46.4 46.4 100% 29.97 0.0
02 22:15 Calm 3.00 Fog/Mist CLR 50 48.2 94% 29.96 0.0
02 21:55 Calm 4.00 Fog/Mist CLR 50 50 100% 29.96 0.0
02 21:35 Calm 5.00 Fog/Mist CLR 50 50 100% 29.96 0.0
02 21:15 Calm 7.00 Partly Cloudy SCT110 51.8 51.8 100% 29.95 0.0
02 20:55 Calm 7.00 Overcast OVC100 51.8 51.8 100% 29.94 0.0
02 20:35 Calm 10.00 Overcast OVC100 51.8 51.8 100% 29.92 0.0
02 20:15 Calm 10.00 Overcast OVC100 51.8 51.8 100% 29.92 0.0
02 19:55 Calm 10.00 Overcast OVC100 53.6 51.8 94% 29.92 0.0
02 19:35 N 5 10.00 Overcast OVC090 53.6 51.8 94% 29.9 0.0
02 19:15 NE 3 10.00 Overcast SCT009 OVC080 53.6 51.8 94% 29.91 0.0
02 18:55 NE 5 10.00 Overcast SCT007 SCT013 OVC080 53.6 51.8 94% 29.91 0.0
02 18:35 N 5 7.00 Overcast SCT009 BKN014 OVC075 53.6 51.8 94% 29.9 0.0
02 18:15 N 6 5.00 Fog/Mist OVC011 53.6 51.8 94% 29.9 0.0
02 17:35 NE 5 7.00 Overcast BKN009 OVC018 53.6 51.8 94% 29.89 0.0
02 17:15 N 12 5.00 Fog/Mist BKN009 OVC017 53.6 51.8 94% 29.89 0.0
02 16:55 NE 7 10.00 Overcast SCT011 OVC016 53.6 51.8 94% 29.89 0.0
02 16:35 N 8 G 16 7.00 Overcast BKN010 OVC015 53.6 51.8 94% 29.88 0.0
02 16:15 N 10 3.00 Fog/Mist OVC010 53.6 51.8 94% 29.88 0.0
02 15:55 N 12 10.00 Overcast BKN008 OVC013 53.6 51.8 94% 29.88 0.0 0.01
02 15:35 N 8 10.00 Overcast OVC008 53.6 51.8 94% 29.89 0.0 0.01
02 15:15 NE 6 7.00 Overcast BKN010 OVC013 53.6 51.8 94% 29.89 0.0 0.01
02 14:55 NE 9 7.00 Light Rain BKN010 OVC013 53.6 51.8 94% 29.88 0.0 0.04
02 14:35 NE 10 5.00 Light Rain OVC008 53.6 51.8 94% 29.89 0.0 0.03
02 14:15 N 8 5.00 Rain BKN008 OVC012 53.6 51.8 94% 29.88 0.0 0.01
02 13:55 NE 10 G 17 5.00 Rain OVC008 53.6 51.8 94% 29.88 0.0 0.08
02 13:35 N 7 7.00 Light Rain OVC008 53.6 53.6 100% 29.88 0.0 0.06
02 13:15 NE 9 G 16 4.00 Rain BKN008 BKN013 OVC017 53.6 51.8 94% 29.88 0.0 0.04
02 12:55 N 12 G 20 7.00 Light Rain BKN006 BKN011 OVC017 53.6 53.6 100% 29.89 0.0 0.03
02 12:35 NE 9 5.00 Light Rain OVC008 55.4 55.4 100% 29.88 0.0 0.02
02 12:15 NE 9 7.00 Light Rain OVC006 55.4 55.4 100% 29.88 0.0
02 11:55 NE 12 3.00 Rain BKN006 OVC012 57.2 55.4 94% 29.87 0.0 0.11
02 11:35 Calm 7.00 Light Rain SCT008 BKN012 OVC034 57.2 55.4 94% 29.91 0.0 0.04
02 11:15 N 5 4.00 Rain SCT007 BKN030 OVC036 57.2 55.4 94% 29.89 0.0 0.03
02 10:55 N 3 4.00 Light Rain BKN007 BKN028 OVC038 57.2 55.4 94% 29.91 0.0 0.03
02 10:35 Calm 10.00 Light Rain SCT007 SCT020 OVC038 57.2 55.4 94% 29.9 0.0 0.01
02 10:15 NE 6 7.00 Light Rain OVC038 57.2 55.4 94% 29.87 0.0 0.01
02 09:55 NE 5 4.00 Rain OVC036 55.4 55.4 100% 29.88 0.0 0.09
02 09:35 N 3 5.00 Rain OVC036 57.2 55.4 94% 29.9 0.0 0.06
02 09:15 N 3 5.00 Light Rain BKN038 BKN046 OVC050 57.2 55.4 94% 29.9 0.0 0.03
02 08:55 N 5 4.00 Rain OVC040 57.2 55.4 94% 29.9 0.0 0.04
02 08:35 NW 3 7.00 Light Rain SCT042 BKN065 OVC085 59 57.2 94% 29.89 0.0 0.01
02 08:15 N 3 7.00 Light Rain OVC085 57.2 57.2 100% 29.85 0.0
02 07:55 Calm 10.00 Overcast SCT036 BKN075 OVC095 57.2 55.4 94% 29.84 0.0 0.01
02 07:35 Calm 10.00 Overcast SCT036 BKN048 OVC075 55.4 55.4 100% 29.85 0.0 0.01
02 07:15 NE 3 5.00 Light Rain BKN038 BKN043 OVC075 55.4 55.4 100% 29.85 0.0 0.01
02 06:55 NE 3 7.00 Light Rain BKN048 BKN060 OVC075 55.4 55.4 100% 29.87 0.0 0.06
02 06:35 Calm 7.00 Light Rain SCT039 OVC048 55.4 55.4 100% 29.87 0.0 0.05
02 06:15 N 3 5.00 Light Rain SCT016 BKN030 OVC039 55.4 55.4 100% 29.88 0.0 0.04
02 05:55 N 5 7.00 Heavy Rain SCT004 SCT012 OVC019 59 57.2 94% 29.89 0.0 0.06
02 05:35 Calm 5.00 Light Rain BKN004 BKN010 OVC055 59 59 100% 29.87 0.0 0.03
02 05:15 N 3 5.00 Light Rain BKN004 BKN010 BKN050 59 59 100% 29.87 0.0 0.01
02 04:55 Calm 5.00 Light Rain SCT002 SCT008 OVC055 59 59 100% 29.87 0.0 0.05
02 04:35 N 3 5.00 Light Rain SCT002 SCT008 OVC055 59 59 100% 29.88 0.0 0.03
02 04:15 Calm 5.00 Light Rain SCT028 SCT045 OVC055 59 59 100% 29.87 0.0 0.02
02 03:55 Calm 5.00 Light Rain SCT028 BKN043 OVC065 59 59 100% 29.87 0.0 0.07
02 03:15 Calm 5.00 Light Rain SCT029 SCT037 OVC065 59 59 100% 29.88 0.0 0.01
02 02:55 Calm 5.00 Light Rain SCT036 SCT044 OVC065 59 59 100% 29.87 0.0 0.01
02 02:35 Calm 10.00 Light Rain SCT018 SCT029 OVC065 59 59 100% 29.87 0.0
02 02:15 Calm 10.00 Overcast BKN018 BKN029 OVC065 60.8 59 94% 29.89 0.0
02 01:55 Calm 10.00 Overcast OVC018 60.8 59 94% 29.9 0.0
02 01:35 Calm 10.00 Overcast BKN018 OVC070 60.8 59 94% 29.9 0.0
02 01:15 Calm 10.00 Overcast OVC070 60.8 59 94% 29.9 0.0
02 00:55 Calm 10.00 Overcast OVC070 60.8 59 94% 29.89 0.0
02 00:35 Calm 10.00 Overcast SCT016 OVC070 60.8 59 94% 29.9 0.0
02 00:15 Calm 10.00 Overcast SCT016 OVC070 60.8 59 94% 29.91 0.0
01 23:55 S 3 10.00 Overcast OVC070 60.8 59 94% 29.91 0.0
01 23:35 Calm 10.00 Overcast SCT020 SCT029 OVC070 60.8 59 94% 29.91 0.0
01 23:15 Calm 10.00 Overcast BKN020 BKN044 OVC070 60.8 59 94% 29.91 0.0
01 22:55 Calm 10.00 Overcast OVC020 60.8 59 94% 29.92 0.0
01 22:35 Calm 10.00 Overcast BKN023 BKN080 OVC100 60.8 59 94% 29.91 0.0
01 22:15 Calm 10.00 Mostly Cloudy SCT027 SCT080 BKN100 60.8 59 94% 29.91 0.0
01 21:55 Calm 10.00 Light Rain SCT027 SCT080 BKN100 60.8 59 94% 29.91 0.0
01 21:35 Calm 10.00 Light Rain SCT033 SCT090 OVC110 62.6 59 88% 29.91 0.0
01 21:15 Calm 10.00 Overcast OVC030 62.6 59 88% 29.91 0.0
01 20:55 Calm 10.00 Overcast SCT022 OVC028 62.6 59 88% 29.9 0.0
01 20:35 Calm 10.00 Mostly Cloudy SCT020 BKN030 62.6 59 88% 29.9 0.0
01 20:15 SE 3 10.00 Mostly Cloudy BKN020 BKN026 62.6 57.2 83% 29.88 0.0
01 19:55 SE 3 10.00 Overcast OVC022 62.6 57.2 83% 29.88 0.0
01 19:35 Calm 10.00 Overcast OVC024 64.4 57.2 78% 29.9 0.0
01 19:15 Calm 10.00 Overcast OVC024 62.6 59 88% 29.89 0.0
01 18:55 Calm 10.00 Overcast OVC026 64.4 57.2 78% 29.89 0.0
01 18:35 Calm 10.00 Overcast OVC026 64.4 55.4 73% 29.9 0.0
01 18:15 Calm 10.00 Light Rain OVC026 64.4 57.2 78% 29.89 0.0
01 17:55 SE 3 10.00 Overcast OVC026 66.2 53.6 64% 29.89 0.0
01 17:35 SE 5 10.00 Overcast OVC028 68 55.4 64% 29.89 0.0
01 17:15 Calm 10.00 Overcast OVC028 66.2 53.6 64% 29.9 0.0
01 16:55 SE 3 10.00 Overcast OVC028 68 53.6 60% 29.89 0.0
01 16:35 SE 5 10.00 Overcast OVC028 68 53.6 60% 29.9 0.0
01 16:15 Calm 10.00 Overcast BKN028 OVC039 68 53.6 60% 29.9 0.0
01 15:55 Calm 10.00 Mostly Cloudy BKN028 BKN039 BKN050 68 53.6 60% 29.91 0.0
01 15:35 E 5 10.00 Overcast BKN030 OVC038 68 53.6 60% 29.91 0.0
01 15:15 NE 3 10.00 Overcast SCT030 OVC036 66.2 53.6 64% 29.92 0.0
01 14:55 E 6 10.00 Overcast BKN036 BKN046 OVC100 66.2 53.6 64% 29.92 0.0
01 14:35 E 5 10.00 Overcast SCT029 SCT038 OVC100 64.4 53.6 68% 29.92 0.0
01 14:15 E 5 10.00 Overcast OVC100 64.4 51.8 64% 29.92 0.0
01 13:55 E 3 10.00 Overcast SCT027 SCT036 OVC100 66.2 51.8 60% 29.93 0.0
01 13:35 NE 5 10.00 Light Rain SCT026 BKN030 OVC035 64.4 53.6 68% 29.94 0.0
01 13:15 NE 3 10.00 Overcast OVC026 64.4 53.6 68% 29.95 0.0
01 12:55 NE 3 10.00 Mostly Cloudy SCT028 BKN034 BKN100 64.4 51.8 64% 29.96 0.0
01 12:35 NE 5 10.00 Mostly Cloudy BKN110 64.4 51.8 64% 29.95 0.0
01 12:15 Calm 10.00 Mostly Cloudy SCT060 BKN110 64.4 51.8 64% 29.95 0.0
01 11:55 E 7 10.00 Mostly Cloudy SCT060 BKN100 64.4 51.8 64% 29.95 0.0
01 11:35 NE 6 10.00 Overcast OVC110 64.4 51.8 64% 29.95 0.0
01 11:15 NE 5 10.00 Mostly Cloudy BKN110 64.4 51.8 64% 29.96 0.0
01 10:55 NE 7 10.00 Fair CLR 64.4 50 60% 29.95 0.0
01 10:15 E 8 10.00 Partly Cloudy SCT055 60.8 48.2 63% 29.96 0.0
01 09:55 NE 6 10.00 Mostly Cloudy SCT038 BKN055 60.8 46.4 59% 29.96 0.0
01 09:35 E 8 10.00 Overcast BKN036 OVC055 60.8 46.4 59% 29.96 0.0
01 09:15 E 8 G 17 10.00 Mostly Cloudy BKN036 59 46.4 63% 29.95 0.0
01 08:55 NE 8 10.00 Mostly Cloudy BKN036 59 48.2 68% 29.95 0.0
01 08:35 NE 7 10.00 Overcast OVC034 59 48.2 68% 29.94 0.0
01 08:15 NE 7 10.00 Overcast OVC034 59 50 72% 29.94 0.0
01 07:55 E 7 10.00 Overcast OVC034 59 50 72% 29.94 0.0
01 07:35 NE 6 10.00 Overcast OVC030 59 51.8 77% 29.94 0.0
01 07:15 NE 8 10.00 Overcast OVC030 59 53.6 82% 29.93 0.0
01 06:55 NE 7 10.00 Overcast OVC030 59 55.4 88% 29.93 0.0
01 06:35 NE 6 10.00 Overcast OVC028 59 55.4 88% 29.92 0.0
01 06:15 NE 7 10.00 Overcast OVC028 59 57.2 94% 29.91 0.0
01 05:55 NE 6 10.00 Overcast OVC026 59 59 100% 29.91 0.0
01 05:35 NE 6 10.00 Overcast OVC026 59 59 100% 29.91 0.0
01 05:15 N 6 7.00 Mostly Cloudy BKN024 59 59 100% 29.91 0.0
01 04:55 N 5 7.00 Fair CLR 57.2 57.2 100% 29.9 0.0
01 04:35 N 6 7.00 Fair CLR 55.4 55.4 100% 29.89 0.0
01 04:15 Calm 10.00 Partly Cloudy SCT075 55.4 55.4 100% 29.88 0.0
01 03:55 Calm 10.00 Overcast OVC075 55.4 55.4 100% 29.89 0.0
01 03:35 Calm 10.00 Mostly Cloudy BKN075 55.4 55.4 100% 29.88 0.0
01 03:15 Calm 10.00 Partly Cloudy SCT090 57.2 55.4 94% 29.87 0.0
01 02:55 Calm 10.00 Partly Cloudy SCT090 57.2 55.4 94% 29.88 0.0
01 02:35 Calm 10.00 Mostly Cloudy BKN080 59 57.2 94% 29.87 0.0
01 02:15 Calm 10.00 Mostly Cloudy BKN080 57.2 55.4 94% 29.88 0.0
01 01:55 Calm 10.00 Partly Cloudy SCT090 57.2 55.4 94% 29.88 0.0
01 01:35 Calm 10.00 Fair CLR 59 59 100% 29.88 0.0
01 01:15 Calm 10.00 Fair CLR 59 57.2 94% 29.89 0.0
01 00:55 Calm 10.00 Fair CLR 59 59 100% 29.88 0.0
01 00:35 Calm 10.00 Fair CLR 59 59 100% 29.89 0.0
01 00:15 Calm 10.00 Fair CLR 60.8 59 94% 29.89 0.0
30 23:55 Calm 10.00 Fair CLR 60.8 60.8 100% 29.88 0.0
30 23:35 S 3 10.00 Fair CLR 62.6 60.8 94% 29.88 0.0
30 23:15 SE 5 10.00 Fair CLR 62.6 60.8 94% 29.88 0.0
30 22:55 S 3 10.00 Fair CLR 62.6 60.8 94% 29.88 0.0
30 22:35 S 5 10.00 Fair CLR 62.6 60.8 94% 29.88 0.0
30 21:55 Calm 10.00 Fair CLR 62.6 60.8 94% 29.87 0.0
30 21:35 Calm 10.00 Fair CLR 62.6 60.8 94% 29.86 0.0
30 21:15 SE 3 10.00 Fair CLR 64.4 60.8 88% 29.84 0.0
30 20:55 Calm 10.00 Fair CLR 64.4 60.8 88% 29.84 0.0
30 20:35 Calm 10.00 Partly Cloudy SCT039 64.4 60.8 88% 29.84 0.0
30 20:15 E 3 10.00 Partly Cloudy SCT039 68 60.8 78% 29.83 0.0
30 19:55 Calm 10.00 Fair CLR 68 60.8 78% 29.82 0.0
30 19:35 Calm 10.00 Partly Cloudy SCT037 69.8 60.8 73% 29.82 0.0
30 19:15 E 5 10.00 Mostly Cloudy SCT034 BKN050 BKN060 71.6 60.8 69% 29.8 0.0
30 18:55 Calm 10.00 Overcast BKN048 BKN065 OVC070 71.6 59 65% 29.8 0.0
30 18:35 Calm 10.00 Mostly Cloudy BKN048 BKN060 71.6 59 65% 29.8 0.0
30 17:55 Calm 10.00 Mostly Cloudy SCT034 BKN090 71.6 57.2 61% 29.8 0.0
30 17:35 Calm 10.00 Mostly Cloudy BKN090 73.4 59 61% 29.79 0.0
30 17:15 Calm 10.00 Overcast SCT034 SCT047 OVC090 73.4 59 61% 29.8 0.0
30 16:55 NE 3 10.00 Overcast BKN034 OVC040 71.6 59 65% 29.8 0.0
30 16:35 Calm 10.00 Overcast OVC034 71.6 57.2 61% 29.8 0.0
30 16:15 Calm 10.00 Overcast BKN034 OVC046 71.6 57.2 61% 29.8 0.0
30 15:55 Calm 10.00 Overcast SCT032 BKN038 OVC046 73.4 59 61% 29.81 0.0
Date Time (edt) Wind (mph) Vis. (mi.) Weather Sky Cond. Air Dwpt Max. Min. Relative Humidity Wind Chill (°F) Heat Index (°F) altimeter (in) sea level (mb) 1 hr 3 hr 6 hr
6 hour
Temperature (ºF) Pressure Precipitation (in)